sensor_id;sensor_type;location;lat;lon;timestamp;temperature;humidity
9209;DHT22;4639;48.862;9.188;2022-09-29T00:01:22;9.30;99.90
9209;DHT22;4639;48.862;9.188;2022-09-29T00:03:48;9.40;99.90
9209;DHT22;4639;48.862;9.188;2022-09-29T00:06:15;9.40;99.90
9209;DHT22;4639;48.862;9.188;2022-09-29T00:08:41;9.40;99.90
9209;DHT22;4639;48.862;9.188;2022-09-29T00:11:09;9.40;99.90
9209;DHT22;4639;48.862;9.188;2022-09-29T00:13:35;9.40;99.90
9209;DHT22;4639;48.862;9.188;2022-09-29T00:16:01;9.40;99.90
9209;DHT22;4639;48.862;9.188;2022-09-29T00:18:28;9.40;99.90
9209;DHT22;4639;48.862;9.188;2022-09-29T00:20:59;9.30;99.90
9209;DHT22;4639;48.862;9.188;2022-09-29T00:23:25;9.40;99.90
9209;DHT22;4639;48.862;9.188;2022-09-29T00:26:04;9.40;99.90
9209;DHT22;4639;48.862;9.188;2022-09-29T00:28:31;9.40;99.90
9209;DHT22;4639;48.862;9.188;2022-09-29T00:30:57;9.30;99.90
9209;DHT22;4639;48.862;9.188;2022-09-29T00:33:24;9.40;99.90
9209;DHT22;4639;48.862;9.188;2022-09-29T00:35:58;9.40;99.90
9209;DHT22;4639;48.862;9.188;2022-09-29T00:38:24;9.40;99.90
9209;DHT22;4639;48.862;9.188;2022-09-29T00:40:50;9.50;99.90
9209;DHT22;4639;48.862;9.188;2022-09-29T00:43:23;9.50;99.90
9209;DHT22;4639;48.862;9.188;2022-09-29T00:45:52;9.50;99.90
9209;DHT22;4639;48.862;9.188;2022-09-29T00:48:25;9.50;99.90
9209;DHT22;4639;48.862;9.188;2022-09-29T00:50:53;9.50;99.90
9209;DHT22;4639;48.862;9.188;2022-09-29T00:53:20;9.50;99.90
9209;DHT22;4639;48.862;9.188;2022-09-29T00:55:50;9.50;99.90
9209;DHT22;4639;48.862;9.188;2022-09-29T00:58:33;9.50;99.90
9209;DHT22;4639;48.862;9.188;2022-09-29T01:00:59;9.50;99.90
9209;DHT22;4639;48.862;9.188;2022-09-29T01:03:29;9.50;99.90
9209;DHT22;4639;48.862;9.188;2022-09-29T01:06:00;9.50;99.90
9209;DHT22;4639;48.862;9.188;2022-09-29T01:08:52;9.40;99.90
9209;DHT22;4639;48.862;9.188;2022-09-29T01:11:22;9.40;99.90
9209;DHT22;4639;48.862;9.188;2022-09-29T01:13:48;9.40;99.90
9209;DHT22;4639;48.862;9.188;2022-09-29T01:16:15;9.40;99.90
9209;DHT22;4639;48.862;9.188;2022-09-29T01:18:42;9.40;99.90
9209;DHT22;4639;48.862;9.188;2022-09-29T01:21:28;9.40;99.90
9209;DHT22;4639;48.862;9.188;2022-09-29T01:24:35;9.40;99.90
9209;DHT22;4639;48.862;9.188;2022-09-29T01:38:34;9.50;99.90
9209;DHT22;4639;48.862;9.188;2022-09-29T01:41:31;9.50;99.90
9209;DHT22;4639;48.862;9.188;2022-09-29T01:44:12;9.50;99.90
9209;DHT22;4639;48.862;9.188;2022-09-29T01:46:47;9.50;99.90
9209;DHT22;4639;48.862;9.188;2022-09-29T01:49:15;9.50;99.90
9209;DHT22;4639;48.862;9.188;2022-09-29T01:51:51;9.50;99.90
9209;DHT22;4639;48.862;9.188;2022-09-29T01:54:32;9.50;99.90
9209;DHT22;4639;48.862;9.188;2022-09-29T01:57:08;9.50;99.90
9209;DHT22;4639;48.862;9.188;2022-09-29T01:59:55;9.50;99.90
9209;DHT22;4639;48.862;9.188;2022-09-29T02:02:29;9.60;99.90
9209;DHT22;4639;48.862;9.188;2022-09-29T02:05:00;9.50;99.90
9209;DHT22;4639;48.862;9.188;2022-09-29T02:07:37;9.50;99.90
9209;DHT22;4639;48.862;9.188;2022-09-29T02:10:10;9.50;99.90
9209;DHT22;4639;48.862;9.188;2022-09-29T02:12:39;9.60;99.90
9209;DHT22;4639;48.862;9.188;2022-09-29T02:15:07;9.60;99.90
9209;DHT22;4639;48.862;9.188;2022-09-29T02:17:38;9.60;99.90
9209;DHT22;4639;48.862;9.188;2022-09-29T02:20:05;9.50;99.90
9209;DHT22;4639;48.862;9.188;2022-09-29T02:22:31;9.60;99.90
9209;DHT22;4639;48.862;9.188;2022-09-29T02:24:59;9.60;99.90
9209;DHT22;4639;48.862;9.188;2022-09-29T02:27:26;9.60;99.90
9209;DHT22;4639;48.862;9.188;2022-09-29T02:29:54;9.60;99.90
9209;DHT22;4639;48.862;9.188;2022-09-29T02:32:20;9.60;99.90
9209;DHT22;4639;48.862;9.188;2022-09-29T02:34:47;9.60;99.90
9209;DHT22;4639;48.862;9.188;2022-09-29T02:45:48;9.60;99.90
9209;DHT22;4639;48.862;9.188;2022-09-29T02:51:26;9.60;99.90
9209;DHT22;4639;48.862;9.188;2022-09-29T02:59:56;9.60;99.90
9209;DHT22;4639;48.862;9.188;2022-09-29T03:02:26;9.60;99.90
9209;DHT22;4639;48.862;9.188;2022-09-29T03:04:52;9.70;99.90
9209;DHT22;4639;48.862;9.188;2022-09-29T03:07:19;9.70;99.90
9209;DHT22;4639;48.862;9.188;2022-09-29T03:09:45;9.70;99.90
9209;DHT22;4639;48.862;9.188;2022-09-29T03:12:10;9.70;99.90
9209;DHT22;4639;48.862;9.188;2022-09-29T03:14:36;9.80;99.90
9209;DHT22;4639;48.862;9.188;2022-09-29T03:17:02;9.80;99.90
9209;DHT22;4639;48.862;9.188;2022-09-29T03:19:28;9.80;99.90
9209;DHT22;4639;48.862;9.188;2022-09-29T03:21:53;9.80;99.90
9209;DHT22;4639;48.862;9.188;2022-09-29T03:24:19;9.80;99.90
9209;DHT22;4639;48.862;9.188;2022-09-29T03:26:45;9.90;99.90
9209;DHT22;4639;48.862;9.188;2022-09-29T03:29:10;9.90;99.90
9209;DHT22;4639;48.862;9.188;2022-09-29T03:31:38;9.90;99.90
9209;DHT22;4639;48.862;9.188;2022-09-29T03:34:04;9.80;99.90
9209;DHT22;4639;48.862;9.188;2022-09-29T03:36:29;9.80;99.90
9209;DHT22;4639;48.862;9.188;2022-09-29T03:38:55;9.70;99.90
9209;DHT22;4639;48.862;9.188;2022-09-29T03:41:20;9.70;99.90
9209;DHT22;4639;48.862;9.188;2022-09-29T03:43:46;9.70;99.90
9209;DHT22;4639;48.862;9.188;2022-09-29T03:46:12;9.70;99.90
9209;DHT22;4639;48.862;9.188;2022-09-29T03:48:37;9.70;99.90
9209;DHT22;4639;48.862;9.188;2022-09-29T03:51:03;9.70;99.90
9209;DHT22;4639;48.862;9.188;2022-09-29T03:53:30;9.70;99.90
9209;DHT22;4639;48.862;9.188;2022-09-29T03:55:57;9.60;99.90
9209;DHT22;4639;48.862;9.188;2022-09-29T03:58:23;9.60;99.90
9209;DHT22;4639;48.862;9.188;2022-09-29T04:00:49;9.60;99.90
9209;DHT22;4639;48.862;9.188;2022-09-29T04:03:14;9.50;99.90
9209;DHT22;4639;48.862;9.188;2022-09-29T04:05:40;9.40;99.90
9209;DHT22;4639;48.862;9.188;2022-09-29T04:08:06;9.40;99.90
9209;DHT22;4639;48.862;9.188;2022-09-29T04:10:35;9.40;99.90
9209;DHT22;4639;48.862;9.188;2022-09-29T04:13:01;9.40;99.90
9209;DHT22;4639;48.862;9.188;2022-09-29T04:15:26;9.40;99.90
9209;DHT22;4639;48.862;9.188;2022-09-29T04:17:52;9.40;99.90
9209;DHT22;4639;48.862;9.188;2022-09-29T04:20:18;9.40;99.90
9209;DHT22;4639;48.862;9.188;2022-09-29T04:22:43;9.30;99.90
9209;DHT22;4639;48.862;9.188;2022-09-29T04:25:09;9.30;99.90
9209;DHT22;4639;48.862;9.188;2022-09-29T04:27:35;9.30;99.90
9209;DHT22;4639;48.862;9.188;2022-09-29T04:30:00;9.30;99.90
9209;DHT22;4639;48.862;9.188;2022-09-29T04:32:26;9.20;99.90
9209;DHT22;4639;48.862;9.188;2022-09-29T04:34:51;9.20;99.90
9209;DHT22;4639;48.862;9.188;2022-09-29T04:37:17;9.10;99.90
9209;DHT22;4639;48.862;9.188;2022-09-29T04:39:42;9.10;99.90
9209;DHT22;4639;48.862;9.188;2022-09-29T04:42:08;9.10;99.90
9209;DHT22;4639;48.862;9.188;2022-09-29T04:44:34;9.00;99.90
9209;DHT22;4639;48.862;9.188;2022-09-29T04:46:59;9.00;99.90
9209;DHT22;4639;48.862;9.188;2022-09-29T04:49:25;8.90;99.90
9209;DHT22;4639;48.862;9.188;2022-09-29T04:51:50;8.90;99.90
9209;DHT22;4639;48.862;9.188;2022-09-29T04:54:16;8.80;99.90
9209;DHT22;4639;48.862;9.188;2022-09-29T04:56:42;8.80;99.90
9209;DHT22;4639;48.862;9.188;2022-09-29T04:59:09;8.80;99.90
9209;DHT22;4639;48.862;9.188;2022-09-29T05:01:35;8.80;99.90
9209;DHT22;4639;48.862;9.188;2022-09-29T05:04:01;8.70;99.90
9209;DHT22;4639;48.862;9.188;2022-09-29T05:06:27;8.70;99.90
9209;DHT22;4639;48.862;9.188;2022-09-29T05:08:52;8.80;99.90
9209;DHT22;4639;48.862;9.188;2022-09-29T05:11:18;8.70;99.90
9209;DHT22;4639;48.862;9.188;2022-09-29T05:13:47;8.80;99.90
9209;DHT22;4639;48.862;9.188;2022-09-29T05:16:14;8.70;99.90
9209;DHT22;4639;48.862;9.188;2022-09-29T05:18:39;8.80;99.90
9209;DHT22;4639;48.862;9.188;2022-09-29T05:21:06;8.70;99.90
9209;DHT22;4639;48.862;9.188;2022-09-29T05:23:32;8.60;99.90
9209;DHT22;4639;48.862;9.188;2022-09-29T05:26:05;8.70;99.90
9209;DHT22;4639;48.862;9.188;2022-09-29T05:28:33;8.70;99.90
9209;DHT22;4639;48.862;9.188;2022-09-29T05:31:01;8.70;99.90
9209;DHT22;4639;48.862;9.188;2022-09-29T05:33:27;8.70;99.90
9209;DHT22;4639;48.862;9.188;2022-09-29T05:35:52;8.80;99.90
9209;DHT22;4639;48.862;9.188;2022-09-29T05:38:18;8.80;99.90
9209;DHT22;4639;48.862;9.188;2022-09-29T05:40:44;8.80;99.90
9209;DHT22;4639;48.862;9.188;2022-09-29T05:43:09;8.80;99.90
9209;DHT22;4639;48.862;9.188;2022-09-29T05:45:35;8.70;99.90
9209;DHT22;4639;48.862;9.188;2022-09-29T05:48:00;8.80;99.90
9209;DHT22;4639;48.862;9.188;2022-09-29T05:50:26;8.70;99.90
9209;DHT22;4639;48.862;9.188;2022-09-29T05:52:52;8.70;99.90
9209;DHT22;4639;48.862;9.188;2022-09-29T05:55:18;8.70;99.90
9209;DHT22;4639;48.862;9.188;2022-09-29T05:57:47;8.70;99.90
9209;DHT22;4639;48.862;9.188;2022-09-29T06:00:13;8.70;99.90
9209;DHT22;4639;48.862;9.188;2022-09-29T06:02:39;8.70;99.90
9209;DHT22;4639;48.862;9.188;2022-09-29T06:05:05;8.70;99.90
9209;DHT22;4639;48.862;9.188;2022-09-29T06:07:31;8.80;99.90
9209;DHT22;4639;48.862;9.188;2022-09-29T06:09:56;8.70;99.90
9209;DHT22;4639;48.862;9.188;2022-09-29T06:12:22;8.80;99.90
9209;DHT22;4639;48.862;9.188;2022-09-29T06:14:47;8.80;99.90
9209;DHT22;4639;48.862;9.188;2022-09-29T06:17:13;8.80;99.90
9209;DHT22;4639;48.862;9.188;2022-09-29T06:19:38;8.90;99.90
9209;DHT22;4639;48.862;9.188;2022-09-29T06:22:04;8.90;99.90
9209;DHT22;4639;48.862;9.188;2022-09-29T06:24:30;9.00;99.90
9209;DHT22;4639;48.862;9.188;2022-09-29T06:26:55;9.00;99.90
9209;DHT22;4639;48.862;9.188;2022-09-29T06:29:21;9.00;99.90
9209;DHT22;4639;48.862;9.188;2022-09-29T06:31:46;9.00;99.90
9209;DHT22;4639;48.862;9.188;2022-09-29T06:34:13;9.10;99.90
9209;DHT22;4639;48.862;9.188;2022-09-29T06:36:43;9.10;99.90
9209;DHT22;4639;48.862;9.188;2022-09-29T06:39:27;9.10;99.90
9209;DHT22;4639;48.862;9.188;2022-09-29T06:41:53;9.10;99.90
9209;DHT22;4639;48.862;9.188;2022-09-29T06:44:22;9.00;99.90
9209;DHT22;4639;48.862;9.188;2022-09-29T06:46:51;9.10;99.90
9209;DHT22;4639;48.862;9.188;2022-09-29T06:49:17;9.10;99.90
9209;DHT22;4639;48.862;9.188;2022-09-29T06:51:44;9.10;99.90
9209;DHT22;4639;48.862;9.188;2022-09-29T06:54:11;9.10;99.90
9209;DHT22;4639;48.862;9.188;2022-09-29T06:56:37;9.20;99.90
9209;DHT22;4639;48.862;9.188;2022-09-29T06:59:02;9.20;99.90
9209;DHT22;4639;48.862;9.188;2022-09-29T07:01:28;9.30;99.90
9209;DHT22;4639;48.862;9.188;2022-09-29T07:03:54;9.30;99.90
9209;DHT22;4639;48.862;9.188;2022-09-29T07:06:19;9.40;99.90
9209;DHT22;4639;48.862;9.188;2022-09-29T07:08:45;9.40;99.90
9209;DHT22;4639;48.862;9.188;2022-09-29T07:11:11;9.40;99.90
9209;DHT22;4639;48.862;9.188;2022-09-29T07:13:36;9.40;99.90
9209;DHT22;4639;48.862;9.188;2022-09-29T07:16:07;9.40;99.90
9209;DHT22;4639;48.862;9.188;2022-09-29T07:18:35;9.50;99.90
9209;DHT22;4639;48.862;9.188;2022-09-29T07:21:03;9.50;99.90
9209;DHT22;4639;48.862;9.188;2022-09-29T07:23:28;9.50;99.90
9209;DHT22;4639;48.862;9.188;2022-09-29T07:25:55;9.60;99.90
9209;DHT22;4639;48.862;9.188;2022-09-29T07:28:20;9.80;99.90
9209;DHT22;4639;48.862;9.188;2022-09-29T07:30:46;9.90;99.90
9209;DHT22;4639;48.862;9.188;2022-09-29T07:33:12;9.90;99.90
9209;DHT22;4639;48.862;9.188;2022-09-29T07:35:37;10.00;99.90
9209;DHT22;4639;48.862;9.188;2022-09-29T07:38:03;10.00;99.90
9209;DHT22;4639;48.862;9.188;2022-09-29T07:40:28;10.00;99.90
9209;DHT22;4639;48.862;9.188;2022-09-29T07:42:54;10.00;99.90
9209;DHT22;4639;48.862;9.188;2022-09-29T07:45:20;10.00;99.90
9209;DHT22;4639;48.862;9.188;2022-09-29T07:47:45;10.20;99.90
9209;DHT22;4639;48.862;9.188;2022-09-29T07:50:11;10.20;99.90
9209;DHT22;4639;48.862;9.188;2022-09-29T07:52:36;10.20;99.90
9209;DHT22;4639;48.862;9.188;2022-09-29T07:55:03;10.30;99.90
9209;DHT22;4639;48.862;9.188;2022-09-29T07:57:29;10.40;99.90
9209;DHT22;4639;48.862;9.188;2022-09-29T07:59:55;10.50;99.90
9209;DHT22;4639;48.862;9.188;2022-09-29T08:02:23;10.60;99.90
9209;DHT22;4639;48.862;9.188;2022-09-29T08:04:49;10.70;99.90
9209;DHT22;4639;48.862;9.188;2022-09-29T08:07:14;10.70;99.90
9209;DHT22;4639;48.862;9.188;2022-09-29T08:09:40;10.70;99.90
9209;DHT22;4639;48.862;9.188;2022-09-29T08:12:05;10.70;99.90
9209;DHT22;4639;48.862;9.188;2022-09-29T08:14:32;10.80;99.90
9209;DHT22;4639;48.862;9.188;2022-09-29T08:16:57;10.80;99.90
9209;DHT22;4639;48.862;9.188;2022-09-29T08:19:23;10.90;99.90
9209;DHT22;4639;48.862;9.188;2022-09-29T08:21:49;11.00;99.90
9209;DHT22;4639;48.862;9.188;2022-09-29T08:24:15;11.10;99.90
9209;DHT22;4639;48.862;9.188;2022-09-29T08:26:42;11.20;99.90
9209;DHT22;4639;48.862;9.188;2022-09-29T08:29:08;11.30;99.90
9209;DHT22;4639;48.862;9.188;2022-09-29T08:31:34;11.40;99.90
9209;DHT22;4639;48.862;9.188;2022-09-29T08:34:02;11.50;99.90
9209;DHT22;4639;48.862;9.188;2022-09-29T08:36:27;11.60;99.90
9209;DHT22;4639;48.862;9.188;2022-09-29T08:38:55;11.80;99.90
9209;DHT22;4639;48.862;9.188;2022-09-29T08:44:11;12.00;99.90
9209;DHT22;4639;48.862;9.188;2022-09-29T08:46:53;12.20;99.90
9209;DHT22;4639;48.862;9.188;2022-09-29T08:49:36;12.30;99.90
9209;DHT22;4639;48.862;9.188;2022-09-29T08:52:27;12.30;99.90
9209;DHT22;4639;48.862;9.188;2022-09-29T08:57:47;12.70;99.90
9209;DHT22;4639;48.862;9.188;2022-09-29T09:00:17;12.90;99.90
9209;DHT22;4639;48.862;9.188;2022-09-29T09:03:00;12.90;99.90
9209;DHT22;4639;48.862;9.188;2022-09-29T09:16:14;13.40;99.90
9209;DHT22;4639;48.862;9.188;2022-09-29T09:21:32;14.00;99.90
9209;DHT22;4639;48.862;9.188;2022-09-29T09:24:18;14.30;99.90
9209;DHT22;4639;48.862;9.188;2022-09-29T09:26:46;14.70;99.90
9209;DHT22;4639;48.862;9.188;2022-09-29T09:29:34;15.00;99.90
9209;DHT22;4639;48.862;9.188;2022-09-29T09:32:03;15.10;99.90
9209;DHT22;4639;48.862;9.188;2022-09-29T09:34:35;15.00;99.90
9209;DHT22;4639;48.862;9.188;2022-09-29T09:37:07;14.90;99.90
9209;DHT22;4639;48.862;9.188;2022-09-29T09:39:39;14.90;99.90
9209;DHT22;4639;48.862;9.188;2022-09-29T09:42:13;14.80;99.90
9209;DHT22;4639;48.862;9.188;2022-09-29T09:44:43;14.70;99.90
9209;DHT22;4639;48.862;9.188;2022-09-29T09:47:28;14.60;99.90
9209;DHT22;4639;48.862;9.188;2022-09-29T09:50:10;14.50;99.90
9209;DHT22;4639;48.862;9.188;2022-09-29T09:55:26;14.20;99.90
9209;DHT22;4639;48.862;9.188;2022-09-29T10:00:56;14.10;99.90
9209;DHT22;4639;48.862;9.188;2022-09-29T10:03:22;14.00;99.90
9209;DHT22;4639;48.862;9.188;2022-09-29T10:05:48;13.90;99.90
9209;DHT22;4639;48.862;9.188;2022-09-29T10:08:23;13.90;99.90
9209;DHT22;4639;48.862;9.188;2022-09-29T10:10:54;13.80;99.90
9209;DHT22;4639;48.862;9.188;2022-09-29T10:13:24;13.90;99.90
9209;DHT22;4639;48.862;9.188;2022-09-29T10:15:52;14.00;99.90
9209;DHT22;4639;48.862;9.188;2022-09-29T10:18:25;14.20;99.90
9209;DHT22;4639;48.862;9.188;2022-09-29T10:20:52;14.30;99.90
9209;DHT22;4639;48.862;9.188;2022-09-29T10:23:25;14.30;99.90
9209;DHT22;4639;48.862;9.188;2022-09-29T10:28:41;14.50;99.90
9209;DHT22;4639;48.862;9.188;2022-09-29T10:33:49;14.70;99.90
9209;DHT22;4639;48.862;9.188;2022-09-29T10:36:17;14.90;99.90
9209;DHT22;4639;48.862;9.188;2022-09-29T10:38:47;15.00;99.90
9209;DHT22;4639;48.862;9.188;2022-09-29T10:41:13;15.20;99.90
9209;DHT22;4639;48.862;9.188;2022-09-29T10:43:39;15.20;99.90
9209;DHT22;4639;48.862;9.188;2022-09-29T10:49:09;15.90;99.90
9209;DHT22;4639;48.862;9.188;2022-09-29T10:51:37;16.40;99.90
9209;DHT22;4639;48.862;9.188;2022-09-29T10:54:13;16.50;99.90
9209;DHT22;4639;48.862;9.188;2022-09-29T10:56:46;16.70;99.90
9209;DHT22;4639;48.862;9.188;2022-09-29T10:59:13;16.80;99.90
9209;DHT22;4639;48.862;9.188;2022-09-29T11:02:03;17.10;99.90
9209;DHT22;4639;48.862;9.188;2022-09-29T11:04:31;17.40;99.90
9209;DHT22;4639;48.862;9.188;2022-09-29T11:07:09;17.30;99.90
9209;DHT22;4639;48.862;9.188;2022-09-29T11:09:43;17.30;99.90
9209;DHT22;4639;48.862;9.188;2022-09-29T11:12:35;17.60;99.90
9209;DHT22;4639;48.862;9.188;2022-09-29T11:15:38;18.00;99.90
9209;DHT22;4639;48.862;9.188;2022-09-29T11:18:18;18.20;99.90
9209;DHT22;4639;48.862;9.188;2022-09-29T11:20:44;18.20;99.90
9209;DHT22;4639;48.862;9.188;2022-09-29T11:23:29;18.30;99.90
9209;DHT22;4639;48.862;9.188;2022-09-29T11:26:01;18.30;99.90
9209;DHT22;4639;48.862;9.188;2022-09-29T11:39:32;17.50;99.90
9209;DHT22;4639;48.862;9.188;2022-09-29T11:45:01;17.40;99.90
9209;DHT22;4639;48.862;9.188;2022-09-29T11:47:46;17.30;99.90
9209;DHT22;4639;48.862;9.188;2022-09-29T11:55:57;17.00;99.90
9209;DHT22;4639;48.862;9.188;2022-09-29T12:04:13;16.50;99.90
9209;DHT22;4639;48.862;9.188;2022-09-29T12:06:55;16.40;99.90
9209;DHT22;4639;48.862;9.188;2022-09-29T12:17:52;16.40;99.90
9209;DHT22;4639;48.862;9.188;2022-09-29T12:20:31;16.20;99.90
9209;DHT22;4639;48.862;9.188;2022-09-29T12:23:01;16.10;99.90
9209;DHT22;4639;48.862;9.188;2022-09-29T12:25:30;15.90;99.90
9209;DHT22;4639;48.862;9.188;2022-09-29T12:28:16;15.90;99.90
9209;DHT22;4639;48.862;9.188;2022-09-29T12:30:49;16.00;99.90
9209;DHT22;4639;48.862;9.188;2022-09-29T12:36:07;16.10;99.90
9209;DHT22;4639;48.862;9.188;2022-09-29T12:39:08;16.20;99.90
9209;DHT22;4639;48.862;9.188;2022-09-29T12:41:40;16.10;99.90
9209;DHT22;4639;48.862;9.188;2022-09-29T12:44:26;16.10;99.90
9209;DHT22;4639;48.862;9.188;2022-09-29T12:47:08;16.10;99.90
9209;DHT22;4639;48.862;9.188;2022-09-29T12:52:14;16.10;99.90
9209;DHT22;4639;48.862;9.188;2022-09-29T12:54:53;16.10;99.90
9209;DHT22;4639;48.862;9.188;2022-09-29T12:57:25;16.10;99.90
9209;DHT22;4639;48.862;9.188;2022-09-29T13:00:05;16.20;99.90
9209;DHT22;4639;48.862;9.188;2022-09-29T13:30:00;16.10;99.90
9209;DHT22;4639;48.862;9.188;2022-09-29T13:32:27;16.00;99.90
9209;DHT22;4639;48.862;9.188;2022-09-29T13:34:56;15.90;99.90
9209;DHT22;4639;48.862;9.188;2022-09-29T13:37:25;15.80;99.90
9209;DHT22;4639;48.862;9.188;2022-09-29T13:42:38;15.80;99.90
9209;DHT22;4639;48.862;9.188;2022-09-29T13:47:55;15.80;99.90
9209;DHT22;4639;48.862;9.188;2022-09-29T13:50:40;15.80;99.90
9209;DHT22;4639;48.862;9.188;2022-09-29T13:56:24;15.80;99.90
9209;DHT22;4639;48.862;9.188;2022-09-29T14:01:33;15.90;99.90
9209;DHT22;4639;48.862;9.188;2022-09-29T14:04:29;15.90;99.90
9209;DHT22;4639;48.862;9.188;2022-09-29T14:06:58;15.70;99.90
9209;DHT22;4639;48.862;9.188;2022-09-29T14:09:29;15.60;99.90
9209;DHT22;4639;48.862;9.188;2022-09-29T14:11:59;15.60;99.90
9209;DHT22;4639;48.862;9.188;2022-09-29T14:14:39;15.70;99.90
9209;DHT22;4639;48.862;9.188;2022-09-29T14:17:34;15.70;99.90
9209;DHT22;4639;48.862;9.188;2022-09-29T14:20:20;15.50;99.90
9209;DHT22;4639;48.862;9.188;2022-09-29T14:22:58;15.50;99.90
9209;DHT22;4639;48.862;9.188;2022-09-29T14:25:30;15.50;99.90
9209;DHT22;4639;48.862;9.188;2022-09-29T14:32:59;15.20;99.90
9209;DHT22;4639;48.862;9.188;2022-09-29T14:38:21;14.90;99.90
9209;DHT22;4639;48.862;9.188;2022-09-29T14:43:45;14.90;99.90
9209;DHT22;4639;48.862;9.188;2022-09-29T14:49:46;14.80;99.90
9209;DHT22;4639;48.862;9.188;2022-09-29T15:03:19;14.90;99.90
9209;DHT22;4639;48.862;9.188;2022-09-29T15:05:46;15.00;99.90
9209;DHT22;4639;48.862;9.188;2022-09-29T15:08:29;15.10;99.90
9209;DHT22;4639;48.862;9.188;2022-09-29T15:11:01;15.10;99.90
9209;DHT22;4639;48.862;9.188;2022-09-29T15:13:28;15.10;99.90
9209;DHT22;4639;48.862;9.188;2022-09-29T15:16:40;15.10;99.90
9209;DHT22;4639;48.862;9.188;2022-09-29T15:25:13;15.00;99.90
9209;DHT22;4639;48.862;9.188;2022-09-29T15:27:44;15.00;99.90
9209;DHT22;4639;48.862;9.188;2022-09-29T15:30:16;15.00;99.90
9209;DHT22;4639;48.862;9.188;2022-09-29T15:32:44;15.00;99.90
9209;DHT22;4639;48.862;9.188;2022-09-29T15:35:15;15.10;99.90
9209;DHT22;4639;48.862;9.188;2022-09-29T15:37:55;15.00;99.90
9209;DHT22;4639;48.862;9.188;2022-09-29T15:40:24;15.10;99.90
9209;DHT22;4639;48.862;9.188;2022-09-29T15:42:51;15.00;99.90
9209;DHT22;4639;48.862;9.188;2022-09-29T15:45:21;14.90;99.90
9209;DHT22;4639;48.862;9.188;2022-09-29T15:47:47;14.90;99.90
9209;DHT22;4639;48.862;9.188;2022-09-29T15:50:21;14.90;99.90
9209;DHT22;4639;48.862;9.188;2022-09-29T15:52:47;14.90;99.90
9209;DHT22;4639;48.862;9.188;2022-09-29T15:55:16;14.90;99.90
9209;DHT22;4639;48.862;9.188;2022-09-29T15:57:44;14.90;99.90
9209;DHT22;4639;48.862;9.188;2022-09-29T16:05:30;15.00;99.90
9209;DHT22;4639;48.862;9.188;2022-09-29T16:08:16;15.10;99.90
9209;DHT22;4639;48.862;9.188;2022-09-29T16:13:18;15.20;99.90
9209;DHT22;4639;48.862;9.188;2022-09-29T16:15:48;15.20;99.90
9209;DHT22;4639;48.862;9.188;2022-09-29T16:18:24;15.10;99.90
9209;DHT22;4639;48.862;9.188;2022-09-29T16:20:51;15.20;99.90
9209;DHT22;4639;48.862;9.188;2022-09-29T16:28:38;15.00;99.90
9209;DHT22;4639;48.862;9.188;2022-09-29T16:31:08;14.90;99.90
9209;DHT22;4639;48.862;9.188;2022-09-29T16:33:43;14.80;99.90
9209;DHT22;4639;48.862;9.188;2022-09-29T16:36:17;14.70;99.90
9209;DHT22;4639;48.862;9.188;2022-09-29T16:38:45;14.70;99.90
9209;DHT22;4639;48.862;9.188;2022-09-29T16:43:40;14.70;99.90
9209;DHT22;4639;48.862;9.188;2022-09-29T16:46:16;14.60;99.90
9209;DHT22;4639;48.862;9.188;2022-09-29T16:48:43;14.60;99.90
9209;DHT22;4639;48.862;9.188;2022-09-29T16:51:21;14.60;99.90
9209;DHT22;4639;48.862;9.188;2022-09-29T16:53:49;14.60;99.90
9209;DHT22;4639;48.862;9.188;2022-09-29T16:56:28;14.40;99.90
9209;DHT22;4639;48.862;9.188;2022-09-29T16:59:21;14.40;99.90
9209;DHT22;4639;48.862;9.188;2022-09-29T17:01:46;14.30;99.90
9209;DHT22;4639;48.862;9.188;2022-09-29T17:04:12;14.30;99.90
9209;DHT22;4639;48.862;9.188;2022-09-29T17:06:45;14.30;99.90
9209;DHT22;4639;48.862;9.188;2022-09-29T17:09:19;14.20;99.90
9209;DHT22;4639;48.862;9.188;2022-09-29T17:11:47;14.20;99.90
9209;DHT22;4639;48.862;9.188;2022-09-29T17:14:14;14.10;99.90
9209;DHT22;4639;48.862;9.188;2022-09-29T17:16:39;14.00;99.90
9209;DHT22;4639;48.862;9.188;2022-09-29T17:19:09;13.90;99.90
9209;DHT22;4639;48.862;9.188;2022-09-29T17:21:34;13.80;99.90
9209;DHT22;4639;48.862;9.188;2022-09-29T17:24:00;13.80;99.90
9209;DHT22;4639;48.862;9.188;2022-09-29T17:26:39;13.70;99.90
9209;DHT22;4639;48.862;9.188;2022-09-29T17:29:24;13.50;99.90
9209;DHT22;4639;48.862;9.188;2022-09-29T17:31:50;13.40;99.90
9209;DHT22;4639;48.862;9.188;2022-09-29T17:34:16;13.30;99.90
9209;DHT22;4639;48.862;9.188;2022-09-29T17:36:42;13.20;99.90
9209;DHT22;4639;48.862;9.188;2022-09-29T17:39:08;13.20;99.90
9209;DHT22;4639;48.862;9.188;2022-09-29T17:41:34;13.20;99.90
9209;DHT22;4639;48.862;9.188;2022-09-29T17:44:00;13.20;99.90
9209;DHT22;4639;48.862;9.188;2022-09-29T17:46:35;13.20;99.90
9209;DHT22;4639;48.862;9.188;2022-09-29T17:49:01;13.20;99.90
9209;DHT22;4639;48.862;9.188;2022-09-29T17:51:26;13.30;99.90
9209;DHT22;4639;48.862;9.188;2022-09-29T17:53:52;13.30;99.90
9209;DHT22;4639;48.862;9.188;2022-09-29T17:56:23;13.40;99.90
9209;DHT22;4639;48.862;9.188;2022-09-29T17:58:53;13.40;99.90
9209;DHT22;4639;48.862;9.188;2022-09-29T18:01:21;13.40;99.90
9209;DHT22;4639;48.862;9.188;2022-09-29T18:03:48;13.40;99.90
9209;DHT22;4639;48.862;9.188;2022-09-29T18:06:19;13.40;99.90
9209;DHT22;4639;48.862;9.188;2022-09-29T18:08:47;13.30;99.90
9209;DHT22;4639;48.862;9.188;2022-09-29T18:11:16;13.30;99.90
9209;DHT22;4639;48.862;9.188;2022-09-29T18:13:42;13.20;99.90
9209;DHT22;4639;48.862;9.188;2022-09-29T18:16:12;13.20;99.90
9209;DHT22;4639;48.862;9.188;2022-09-29T18:18:38;13.20;99.90
9209;DHT22;4639;48.862;9.188;2022-09-29T18:21:04;13.20;99.90
9209;DHT22;4639;48.862;9.188;2022-09-29T18:23:30;13.20;99.90
9209;DHT22;4639;48.862;9.188;2022-09-29T18:25:56;13.20;99.90
9209;DHT22;4639;48.862;9.188;2022-09-29T18:28:22;13.20;99.90
9209;DHT22;4639;48.862;9.188;2022-09-29T18:30:50;13.20;99.90
9209;DHT22;4639;48.862;9.188;2022-09-29T18:33:19;13.30;99.90
9209;DHT22;4639;48.862;9.188;2022-09-29T18:35:50;13.10;99.90
9209;DHT22;4639;48.862;9.188;2022-09-29T18:38:16;13.10;99.90
9209;DHT22;4639;48.862;9.188;2022-09-29T18:40:41;13.10;99.90
9209;DHT22;4639;48.862;9.188;2022-09-29T18:43:10;13.00;99.90
9209;DHT22;4639;48.862;9.188;2022-09-29T18:45:37;12.90;99.90
9209;DHT22;4639;48.862;9.188;2022-09-29T18:48:08;12.80;99.90
9209;DHT22;4639;48.862;9.188;2022-09-29T18:50:36;12.80;99.90
9209;DHT22;4639;48.862;9.188;2022-09-29T18:53:04;12.80;99.90
9209;DHT22;4639;48.862;9.188;2022-09-29T18:55:31;12.70;99.90
9209;DHT22;4639;48.862;9.188;2022-09-29T18:57:58;12.70;99.90
9209;DHT22;4639;48.862;9.188;2022-09-29T19:00:33;12.70;99.90
9209;DHT22;4639;48.862;9.188;2022-09-29T19:03:01;12.70;99.90
9209;DHT22;4639;48.862;9.188;2022-09-29T19:05:31;12.70;99.90
9209;DHT22;4639;48.862;9.188;2022-09-29T19:07:59;12.80;99.90
9209;DHT22;4639;48.862;9.188;2022-09-29T19:10:25;12.80;99.90
9209;DHT22;4639;48.862;9.188;2022-09-29T19:12:52;12.70;99.90
9209;DHT22;4639;48.862;9.188;2022-09-29T19:15:23;12.60;99.90
9209;DHT22;4639;48.862;9.188;2022-09-29T19:17:51;12.60;99.90
9209;DHT22;4639;48.862;9.188;2022-09-29T19:20:20;12.50;99.90
9209;DHT22;4639;48.862;9.188;2022-09-29T19:22:48;12.40;99.90
9209;DHT22;4639;48.862;9.188;2022-09-29T19:25:18;12.30;99.90
9209;DHT22;4639;48.862;9.188;2022-09-29T19:27:44;12.20;99.90
9209;DHT22;4639;48.862;9.188;2022-09-29T19:30:12;12.20;99.90
9209;DHT22;4639;48.862;9.188;2022-09-29T19:32:38;12.40;99.90
9209;DHT22;4639;48.862;9.188;2022-09-29T19:35:05;12.20;99.90